createdAt,value
2022-10-05T00:04:19.835Z,11.40
2022-10-05T00:09:23.116Z,11.39
2022-10-05T00:14:30.433Z,11.49
2022-10-05T00:19:35.670Z,11.29
2022-10-05T00:24:38.211Z,11.34
2022-10-05T00:29:42.125Z,11.32
2022-10-05T00:34:45.431Z,11.34
2022-10-05T00:39:48.071Z,11.26
2022-10-05T00:44:55.651Z,11.29
2022-10-05T00:50:25.322Z,11.24
2022-10-05T00:55:34.727Z,11.29
2022-10-05T01:00:46.261Z,11.22
2022-10-05T01:05:59.191Z,11.24
2022-10-05T01:11:06.907Z,11.18
2022-10-05T01:16:16.393Z,11.31
2022-10-05T01:21:21.008Z,11.13
2022-10-05T01:26:41.097Z,11.12
2022-10-05T01:31:50.515Z,11.20
2022-10-05T01:36:58.685Z,11.39
2022-10-05T01:42:06.689Z,11.37
2022-10-05T01:47:15.067Z,11.27
2022-10-05T01:52:27.086Z,11.18
2022-10-05T01:57:39.495Z,11.42
2022-10-05T02:02:47.673Z,11.20
2022-10-05T02:07:53.902Z,11.22
2022-10-05T02:13:00.550Z,11.29
2022-10-05T02:18:10.704Z,11.22
2022-10-05T02:23:18.999Z,11.20
2022-10-05T02:28:24.610Z,11.22
2022-10-05T02:33:31.354Z,11.11
2022-10-05T02:38:45.107Z,11.15
2022-10-05T02:43:54.453Z,11.26
2022-10-05T02:49:09.583Z,11.27
2022-10-05T02:54:17.802Z,11.33
2022-10-05T02:59:26.128Z,11.36
2022-10-05T03:04:37.869Z,11.37
2022-10-05T03:09:47.220Z,11.17
2022-10-05T03:14:57.964Z,11.23
2022-10-05T03:20:13.182Z,11.17
2022-10-05T03:25:29.979Z,11.17
2022-10-05T03:30:37.983Z,11.20
2022-10-05T03:35:49.712Z,11.30
2022-10-05T03:40:55.690Z,11.27
2022-10-05T03:46:03.573Z,11.26
2022-10-05T03:51:14.195Z,11.44
2022-10-05T03:56:21.487Z,11.31
2022-10-05T04:01:38.295Z,11.36
2022-10-05T04:06:46.457Z,11.12
2022-10-05T04:11:52.950Z,11.11
2022-10-05T04:16:58.833Z,11.13
2022-10-05T04:22:06.394Z,11.12
2022-10-05T04:27:13.567Z,11.13
2022-10-05T04:32:28.655Z,11.17
2022-10-05T04:37:36.696Z,10.98
2022-10-05T04:42:45.636Z,11.02
2022-10-05T04:48:12.349Z,10.96
2022-10-05T04:53:23.742Z,10.97
2022-10-05T04:58:42.191Z,11.12
2022-10-05T05:04:08.541Z,11.06
2022-10-05T05:09:37.253Z,10.98
2022-10-05T05:14:47.905Z,10.87
2022-10-05T05:19:59.165Z,10.94
2022-10-05T05:25:21.207Z,10.67
2022-10-05T05:30:34.106Z,10.85
2022-10-05T05:36:01.359Z,10.63
2022-10-05T05:41:10.933Z,10.78
2022-10-05T05:46:18.347Z,10.80
2022-10-05T05:51:26.121Z,10.54
2022-10-05T05:56:35.247Z,10.72
2022-10-05T06:01:44.436Z,10.88
2022-10-05T06:06:50.807Z,10.67
2022-10-05T06:11:57.995Z,10.68
2022-10-05T06:17:05.353Z,10.81
2022-10-05T06:22:15.134Z,11.07
2022-10-05T06:27:27.163Z,11.06
2022-10-05T06:32:33.347Z,11.19
2022-10-05T06:37:47.785Z,11.36
2022-10-05T06:43:06.821Z,11.63
2022-10-05T06:48:14.649Z,11.68
2022-10-05T06:53:41.943Z,12.07
2022-10-05T06:58:56.658Z,12.12
2022-10-05T07:04:23.931Z,12.59
2022-10-05T07:09:34.852Z,12.81
2022-10-05T07:14:53.594Z,12.73
2022-10-05T07:20:00.926Z,12.81
2022-10-05T07:25:08.350Z,12.99
2022-10-05T07:30:13.858Z,13.04
2022-10-05T07:35:39.510Z,13.11
2022-10-05T07:40:48.561Z,13.13
2022-10-05T07:45:57.813Z,13.12
2022-10-05T07:51:04.916Z,13.22
2022-10-05T07:56:14.406Z,13.45
2022-10-05T08:01:23.294Z,13.48
2022-10-05T08:06:50.546Z,13.59
2022-10-05T08:11:59.765Z,13.86
2022-10-05T08:17:10.550Z,13.93
2022-10-05T08:22:18.377Z,13.89
2022-10-05T08:27:24.649Z,14.01
2022-10-05T08:32:30.332Z,14.02
2022-10-05T08:37:35.237Z,14.08
2022-10-05T08:42:49.084Z,14.18
2022-10-05T08:48:30.968Z,14.14
2022-10-05T08:53:52.122Z,14.12
2022-10-05T08:59:06.349Z,14.20
2022-10-05T09:04:21.129Z,14.23
2022-10-05T09:10:01.403Z,14.29
2022-10-05T09:15:26.268Z,14.34
2022-10-05T09:20:32.099Z,14.37
2022-10-05T09:25:44.363Z,14.52
2022-10-05T09:31:03.378Z,14.58
2022-10-05T09:36:56.611Z,14.79
2022-10-05T09:42:17.481Z,14.86
2022-10-05T09:47:50.657Z,14.96
2022-10-05T09:53:06.985Z,15.02
2022-10-05T09:58:46.065Z,15.17
2022-10-05T10:04:06.997Z,15.26
2022-10-05T10:09:25.159Z,15.41
2022-10-05T10:15:06.204Z,15.52
2022-10-05T10:20:22.454Z,15.69
2022-10-05T10:25:39.087Z,15.70
2022-10-05T10:30:44.691Z,15.78
2022-10-05T10:35:56.498Z,15.88
2022-10-05T10:41:08.598Z,15.91
2022-10-05T10:46:21.891Z,16.06
2022-10-05T10:52:01.899Z,16.15
2022-10-05T10:57:07.207Z,16.23
2022-10-05T11:02:26.950Z,16.28
2022-10-05T11:08:05.097Z,16.43
2022-10-05T11:13:28.830Z,16.41
2022-10-05T11:18:48.096Z,16.39
2022-10-05T11:24:21.823Z,16.39
2022-10-05T11:29:41.292Z,16.57
2022-10-05T11:35:10.694Z,16.63
2022-10-05T11:41:03.048Z,16.68
2022-10-05T11:46:10.625Z,16.76
2022-10-05T11:51:28.612Z,17.04
2022-10-05T11:56:36.607Z,17.32
2022-10-05T12:01:43.245Z,17.36
2022-10-05T12:06:55.999Z,17.43
2022-10-05T12:12:10.113Z,17.94
2022-10-05T12:17:20.230Z,17.84
2022-10-05T12:22:26.053Z,18.15
2022-10-05T12:27:32.986Z,18.20
2022-10-05T12:32:42.372Z,18.26
2022-10-05T12:37:51.994Z,18.30
2022-10-05T12:43:02.961Z,18.41
2022-10-05T12:48:29.717Z,18.19
2022-10-05T12:53:43.031Z,18.40
2022-10-05T12:58:53.369Z,18.37
2022-10-05T13:04:05.678Z,18.57
2022-10-05T13:09:11.602Z,18.44
2022-10-05T13:14:23.273Z,18.69
2022-10-05T13:19:35.749Z,18.81
2022-10-05T13:24:45.717Z,18.86
2022-10-05T13:29:54.420Z,18.86
2022-10-05T13:35:11.355Z,18.89
2022-10-05T13:40:18.719Z,18.78
2022-10-05T13:45:23.267Z,18.96
2022-10-05T13:50:32.695Z,19.09
2022-10-05T13:55:42.135Z,19.29
2022-10-05T14:00:48.195Z,19.16
2022-10-05T14:05:57.379Z,19.32
2022-10-05T14:11:00.407Z,19.41
2022-10-05T14:16:15.405Z,19.41
2022-10-05T14:21:22.072Z,19.41
2022-10-05T14:26:33.821Z,19.46
2022-10-05T14:31:37.554Z,19.37
2022-10-05T14:36:43.878Z,19.36
2022-10-05T14:41:48.722Z,19.25
2022-10-05T14:46:54.377Z,19.29
2022-10-05T14:51:58.761Z,19.26
2022-10-05T14:57:10.083Z,19.31
2022-10-05T15:02:44.898Z,19.26
2022-10-05T15:07:50.358Z,19.23
2022-10-05T15:12:54.997Z,19.15
2022-10-05T15:18:01.321Z,19.09
2022-10-05T15:23:20.587Z,19.01
2022-10-05T15:28:33.235Z,18.95
2022-10-05T15:33:39.448Z,18.86
2022-10-05T15:38:50.555Z,19.00
2022-10-05T15:44:03.715Z,19.01
2022-10-05T15:49:25.506Z,18.81
2022-10-05T15:55:06.793Z,18.79
2022-10-05T16:00:12.028Z,18.67
2022-10-05T16:05:44.620Z,18.57
2022-10-05T16:10:48.487Z,18.42
2022-10-05T16:15:56.658Z,18.35
2022-10-05T16:21:05.906Z,18.39
2022-10-05T16:26:19.473Z,18.24
2022-10-05T16:31:26.573Z,18.15
2022-10-05T16:36:40.224Z,18.04
2022-10-05T16:41:51.269Z,17.89
2022-10-05T16:46:57.653Z,17.81
2022-10-05T16:52:01.485Z,17.69
2022-10-05T16:57:10.781Z,17.60
2022-10-05T17:02:19.130Z,17.56
2022-10-05T17:07:40.826Z,17.44
2022-10-05T17:12:53.927Z,17.36
2022-10-05T17:18:05.686Z,17.33
2022-10-05T17:23:30.192Z,17.29
2022-10-05T17:28:44.275Z,17.12
2022-10-05T17:34:27.130Z,17.18
2022-10-05T17:39:50.425Z,17.36
2022-10-05T17:44:56.444Z,17.34
2022-10-05T17:50:18.020Z,17.31
2022-10-05T17:55:38.377Z,17.30
2022-10-05T18:01:04.179Z,17.21
2022-10-05T18:06:29.378Z,17.27
2022-10-05T18:11:37.796Z,17.17
2022-10-05T18:17:01.506Z,17.25
2022-10-05T18:22:15.275Z,17.26
2022-10-05T18:27:34.252Z,17.26
2022-10-05T18:33:03.785Z,17.19
2022-10-05T18:38:25.911Z,16.92
2022-10-05T18:43:32.815Z,16.93
2022-10-05T18:48:42.666Z,16.93
2022-10-05T18:53:59.319Z,16.92
2022-10-05T18:59:18.341Z,16.94
2022-10-05T19:04:29.369Z,16.88
2022-10-05T19:09:49.638Z,17.02
2022-10-05T19:14:58.527Z,17.02
2022-10-05T19:20:22.271Z,17.14
2022-10-05T19:25:34.255Z,16.92
2022-10-05T19:30:51.879Z,16.93
2022-10-05T19:36:05.176Z,16.82
2022-10-05T19:41:14.723Z,16.79
2022-10-05T19:46:25.215Z,16.85
2022-10-05T19:51:31.014Z,16.83
2022-10-05T19:56:35.110Z,16.82
2022-10-05T20:01:40.562Z,16.76
2022-10-05T20:06:44.535Z,16.76
2022-10-05T20:11:50.514Z,16.64
2022-10-05T20:17:35.541Z,16.58
2022-10-05T20:22:46.231Z,16.51
2022-10-05T20:27:50.539Z,16.41
2022-10-05T20:32:57.469Z,16.33
2022-10-05T20:38:01.527Z,16.41
2022-10-05T20:43:04.057Z,16.40
2022-10-05T20:48:06.637Z,16.42
2022-10-05T20:53:12.064Z,16.47
2022-10-05T20:58:14.793Z,16.53
2022-10-05T21:03:19.180Z,16.53
2022-10-05T21:08:23.074Z,16.57
2022-10-05T21:13:26.583Z,16.64
2022-10-05T21:18:29.553Z,16.67
2022-10-05T21:23:33.853Z,16.70
2022-10-05T21:28:36.478Z,16.71
2022-10-05T21:33:39.041Z,16.75
2022-10-05T21:38:43.088Z,16.89
2022-10-05T21:43:45.851Z,16.85
2022-10-05T21:48:49.111Z,16.88
2022-10-05T21:53:55.561Z,17.02
2022-10-05T21:58:57.922Z,17.03
2022-10-05T22:04:00.452Z,17.02
2022-10-05T22:09:04.831Z,17.11
2022-10-05T22:14:07.382Z,17.13
2022-10-05T22:19:15.677Z,17.16
2022-10-05T22:24:19.575Z,17.21
2022-10-05T22:29:22.258Z,17.31
2022-10-05T22:34:24.838Z,17.27
2022-10-05T22:39:28.710Z,17.22
2022-10-05T22:44:31.264Z,17.27
2022-10-05T22:49:33.815Z,17.28
2022-10-05T22:54:37.709Z,16.94
2022-10-05T22:59:40.257Z,16.42
2022-10-05T23:04:42.804Z,16.07
2022-10-05T23:09:46.683Z,15.95
2022-10-05T23:14:49.222Z,15.87
2022-10-05T23:19:51.757Z,15.71
2022-10-05T23:24:55.659Z,15.69
2022-10-05T23:29:58.224Z,15.70
2022-10-05T23:35:00.790Z,15.69
2022-10-05T23:40:05.858Z,15.57
2022-10-05T23:45:10.031Z,15.45
2022-10-05T23:50:12.570Z,15.31
2022-10-05T23:55:16.554Z,15.12
